Arleta, California
Current Conditions -  °F | °C
As of 6:53 AM on Monday 22 Dec 2014 (Local Time) from KBUR Reporting Station
Clear Clear  
Wind Chill: 10°   Ceiling: Unl
Heat Index: 10°   Visibility: 10mi
Dew Point:   Wind: 5mph
Humidity: 80%   Direction: NA
Pressure: 30.03"   Gusts: NA
Location:  34.2574°N, 118.255°W
Report Text: KBUR 221453Z VRB04KT 10SM CLR 10/07 A3003 RMK AO2 SLP162 T01000067 53001
Loading
Personal Weather Stations






























Interactive Weather Map New forecast layout! Learn more

10-Day Weather Forecast

Advertisements
Track Severe Weather on mobile